EZY133 LXGB-LEVX
Flight info
| Callsign | EZY133 |
|---|---|
| Flight time | 1h 15m |
| Altitude | 38000 |
| Route | AOG DCT ROSAL/N0359F180 Z227 EXONA DCT FTM/N0387F240 UP600 TURON |
| Aircraft | A320/M-SDE3FGHIRWY/LB1 |
Departure
| Time | 2026-04-20 20:29 |
|---|---|
| Airport | Gibraltar Airport (LXGB) |
Arrival
| Time | 2026-04-20 21:44 |
|---|---|
| Airport | Vigo Airport (LEVX) |
| Time | Latitude | Longitude | Altitude | Speed | Heading |
|---|---|---|---|---|---|
| 2026-04-20 20:04 | 36.15302 | -5.34675 | 17 ft | 0 kts | 358° |
| 2026-04-20 20:19 | 36.15294 | -5.34675 | 17 ft | 2 kts | 358° |
| 2026-04-20 20:20 | 36.15279 | -5.34674 | 17 ft | 2 kts | 358° |
| 2026-04-20 20:20 | 36.15264 | -5.34673 | 17 ft | 2 kts | 358° |
| 2026-04-20 20:20 | 36.15255 | -5.34673 | 17 ft | 1 kts | 358° |
| 2026-04-20 20:20 | 36.15241 | -5.34668 | 17 ft | 2 kts | 326° |
| 2026-04-20 20:21 | 36.15230 | -5.34655 | 17 ft | 2 kts | 300° |
| 2026-04-20 20:21 | 36.15225 | -5.34638 | 17 ft | 1 kts | 273° |
| 2026-04-20 20:21 | 36.15225 | -5.34630 | 17 ft | 1 kts | 265° |
| 2026-04-20 20:21 | 36.15225 | -5.34628 | 17 ft | 0 kts | 267° |
| 2026-04-20 20:23 | 36.15225 | -5.34635 | 17 ft | 0 kts | 265° |
| 2026-04-20 20:23 | 36.15225 | -5.34636 | 17 ft | 0 kts | 264° |
| 2026-04-20 20:24 | 36.15225 | -5.34639 | 17 ft | 0 kts | 264° |
| 2026-04-20 20:24 | 36.15224 | -5.34649 | 17 ft | 0 kts | 263° |
| 2026-04-20 20:24 | 36.15223 | -5.34650 | 17 ft | 0 kts | 252° |
| 2026-04-20 20:24 | 36.15182 | -5.34680 | 17 ft | 14 kts | 189° |
| 2026-04-20 20:25 | 36.15128 | -5.34726 | 17 ft | 9 kts | 250° |
| 2026-04-20 20:25 | 36.15121 | -5.34810 | 17 ft | 10 kts | 268° |
| 2026-04-20 20:25 | 36.15118 | -5.34900 | 17 ft | 10 kts | 268° |
| 2026-04-20 20:25 | 36.15115 | -5.35000 | 16 ft | 12 kts | 268° |
| 2026-04-20 20:26 | 36.15111 | -5.35112 | 15 ft | 14 kts | 268° |
| 2026-04-20 20:26 | 36.15107 | -5.35245 | 13 ft | 17 kts | 268° |
| 2026-04-20 20:26 | 36.15101 | -5.35404 | 10 ft | 19 kts | 268° |
| 2026-04-20 20:26 | 36.15095 | -5.35576 | 10 ft | 20 kts | 268° |
| 2026-04-20 20:27 | 36.15089 | -5.35750 | 10 ft | 20 kts | 268° |
| 2026-04-20 20:27 | 36.15060 | -5.35892 | 10 ft | 14 kts | 253° |
| 2026-04-20 20:27 | 36.15088 | -5.35941 | 10 ft | 6 kts | 61° |
| 2026-04-20 20:27 | 36.15084 | -5.35883 | 10 ft | 5 kts | 90° |
| 2026-04-20 20:28 | 36.15084 | -5.35880 | 10 ft | 0 kts | 88° |
| 2026-04-20 20:28 | 36.15084 | -5.35879 | 10 ft | 0 kts | 88° |
| 2026-04-20 20:28 | 36.15094 | -5.35598 | 10 ft | 81 kts | 88° |
| 2026-04-20 20:28 | 36.15131 | -5.34545 | 18 ft | 162 kts | 87° |
| 2026-04-20 20:29 | 36.15182 | -5.32963 | 519 ft | 193 kts | 89° |
| 2026-04-20 20:29 | 36.15243 | -5.31332 | 1473 ft | 197 kts | 87° |
| 2026-04-20 20:29 | 36.15338 | -5.29551 | 2105 ft | 219 kts | 86° |
| 2026-04-20 20:29 | 36.15447 | -5.27619 | 2813 ft | 236 kts | 87° |
| 2026-04-20 20:30 | 36.15557 | -5.25514 | 3485 ft | 254 kts | 88° |
| 2026-04-20 20:30 | 36.15769 | -5.23307 | 4246 ft | 267 kts | 73° |
| 2026-04-20 20:30 | 36.16672 | -5.21311 | 5061 ft | 276 kts | 47° |
| 2026-04-20 20:30 | 36.18240 | -5.19926 | 5871 ft | 283 kts | 21° |
| 2026-04-20 20:31 | 36.20149 | -5.19467 | 6659 ft | 287 kts | 356° |
| 2026-04-20 20:31 | 36.22075 | -5.20038 | 7521 ft | 288 kts | 332° |
| 2026-04-20 20:31 | 36.23640 | -5.21542 | 8385 ft | 288 kts | 308° |
| 2026-04-20 20:31 | 36.24640 | -5.23682 | 9268 ft | 289 kts | 295° |
| 2026-04-20 20:32 | 36.25476 | -5.25938 | 10128 ft | 292 kts | 294° |
| 2026-04-20 20:32 | 36.26316 | -5.28209 | 10909 ft | 298 kts | 294° |
| 2026-04-20 20:32 | 36.27197 | -5.30598 | 11389 ft | 315 kts | 294° |
| 2026-04-20 20:32 | 36.28136 | -5.33155 | 11731 ft | 334 kts | 294° |
| 2026-04-20 20:33 | 36.29126 | -5.35860 | 12012 ft | 353 kts | 294° |
| 2026-04-20 20:33 | 36.30152 | -5.38668 | 12483 ft | 363 kts | 294° |
| 2026-04-20 20:33 | 36.31185 | -5.41496 | 13075 ft | 368 kts | 293° |
| 2026-04-20 20:33 | 36.32256 | -5.44432 | 13729 ft | 372 kts | 293° |
| 2026-04-20 20:34 | 36.33314 | -5.47340 | 14345 ft | 374 kts | 293° |
| 2026-04-20 20:34 | 36.34381 | -5.50275 | 14982 ft | 376 kts | 293° |
| 2026-04-20 20:34 | 36.35448 | -5.53215 | 15574 ft | 378 kts | 293° |
| 2026-04-20 20:34 | 36.36540 | -5.56226 | 16170 ft | 381 kts | 293° |
| 2026-04-20 20:35 | 36.37623 | -5.59215 | 16759 ft | 383 kts | 293° |
| 2026-04-20 20:35 | 36.38714 | -5.62228 | 17322 ft | 386 kts | 293° |
| 2026-04-20 20:35 | 36.39814 | -5.65266 | 17865 ft | 388 kts | 292° |
| 2026-04-20 20:35 | 36.40929 | -5.68316 | 18408 ft | 391 kts | 292° |
| 2026-04-20 20:36 | 36.42052 | -5.71390 | 18967 ft | 392 kts | 292° |
| 2026-04-20 20:36 | 36.43162 | -5.74443 | 19500 ft | 394 kts | 292° |
| 2026-04-20 20:36 | 36.44288 | -5.77550 | 20024 ft | 396 kts | 292° |
| 2026-04-20 20:36 | 36.45419 | -5.80679 | 20555 ft | 397 kts | 292° |
| 2026-04-20 20:37 | 36.46539 | -5.83783 | 21093 ft | 398 kts | 292° |
| 2026-04-20 20:37 | 36.47671 | -5.86927 | 21645 ft | 398 kts | 292° |
| 2026-04-20 20:37 | 36.48791 | -5.90040 | 22341 ft | 394 kts | 292° |
| 2026-04-20 20:37 | 36.49897 | -5.93122 | 22996 ft | 391 kts | 292° |
| 2026-04-20 20:38 | 36.50996 | -5.96185 | 23614 ft | 390 kts | 292° |
| 2026-04-20 20:38 | 36.52102 | -5.99275 | 24216 ft | 388 kts | 292° |
| 2026-04-20 20:38 | 36.53188 | -6.02312 | 24801 ft | 387 kts | 292° |
| 2026-04-20 20:38 | 36.54280 | -6.05359 | 25381 ft | 386 kts | 292° |
| 2026-04-20 20:39 | 36.55360 | -6.08372 | 25930 ft | 385 kts | 291° |
| 2026-04-20 20:39 | 36.56444 | -6.11406 | 26436 ft | 386 kts | 291° |
| 2026-04-20 20:39 | 36.57538 | -6.14470 | 26859 ft | 388 kts | 291° |
| 2026-04-20 20:39 | 36.58642 | -6.17568 | 27226 ft | 392 kts | 292° |
| 2026-04-20 20:40 | 36.59743 | -6.20662 | 27579 ft | 395 kts | 291° |
| 2026-04-20 20:40 | 36.60859 | -6.23803 | 27952 ft | 398 kts | 291° |
| 2026-04-20 20:40 | 36.61974 | -6.26941 | 28294 ft | 401 kts | 291° |
| 2026-04-20 20:40 | 36.63101 | -6.30092 | 28686 ft | 403 kts | 294° |
| 2026-04-20 20:41 | 36.64592 | -6.33063 | 29155 ft | 407 kts | 307° |
| 2026-04-20 20:41 | 36.66655 | -6.35491 | 29636 ft | 411 kts | 322° |
| 2026-04-20 20:41 | 36.69124 | -6.37227 | 30205 ft | 412 kts | 333° |
| 2026-04-20 20:41 | 36.71797 | -6.38684 | 30448 ft | 418 kts | 334° |
| 2026-04-20 20:42 | 36.74472 | -6.40123 | 30634 ft | 424 kts | 334° |
| 2026-04-20 20:42 | 36.77194 | -6.41587 | 30956 ft | 426 kts | 334° |
| 2026-04-20 20:42 | 36.79931 | -6.43061 | 31228 ft | 429 kts | 334° |
| 2026-04-20 20:42 | 36.82672 | -6.44538 | 31405 ft | 434 kts | 334° |
| 2026-04-20 20:43 | 36.85456 | -6.46040 | 31707 ft | 436 kts | 334° |
| 2026-04-20 20:43 | 36.88219 | -6.47532 | 32031 ft | 438 kts | 334° |
| 2026-04-20 20:43 | 36.91038 | -6.49056 | 32206 ft | 442 kts | 334° |
| 2026-04-20 20:43 | 36.93883 | -6.50595 | 32431 ft | 445 kts | 334° |
| 2026-04-20 20:44 | 36.96729 | -6.52135 | 32734 ft | 446 kts | 334° |
| 2026-04-20 20:44 | 36.99586 | -6.53683 | 33058 ft | 446 kts | 334° |
| 2026-04-20 20:44 | 37.02432 | -6.55228 | 33411 ft | 445 kts | 334° |
| 2026-04-20 20:44 | 37.05270 | -6.56771 | 33749 ft | 445 kts | 334° |
| 2026-04-20 20:45 | 37.08080 | -6.58298 | 34084 ft | 444 kts | 334° |
| 2026-04-20 20:45 | 37.10928 | -6.59848 | 34406 ft | 444 kts | 334° |
| 2026-04-20 20:45 | 37.13766 | -6.61393 | 34722 ft | 443 kts | 334° |
| 2026-04-20 20:45 | 37.16589 | -6.62930 | 35051 ft | 443 kts | 334° |
| 2026-04-20 20:46 | 37.19416 | -6.64471 | 35356 ft | 442 kts | 334° |
| 2026-04-20 20:46 | 37.22233 | -6.66008 | 35660 ft | 442 kts | 333° |
| 2026-04-20 20:46 | 37.25061 | -6.67552 | 35985 ft | 441 kts | 333° |
| 2026-04-20 20:46 | 37.27836 | -6.69069 | 36292 ft | 440 kts | 333° |
| 2026-04-20 20:47 | 37.30670 | -6.70619 | 36583 ft | 440 kts | 333° |
| 2026-04-20 20:47 | 37.33441 | -6.72137 | 36851 ft | 440 kts | 333° |
| 2026-04-20 20:47 | 37.36252 | -6.73678 | 37129 ft | 439 kts | 333° |
| 2026-04-20 20:47 | 37.39059 | -6.75218 | 37359 ft | 439 kts | 333° |
| 2026-04-20 20:48 | 37.41856 | -6.76741 | 37599 ft | 439 kts | 334° |
| 2026-04-20 20:48 | 37.44666 | -6.78255 | 37801 ft | 439 kts | 333° |
| 2026-04-20 20:48 | 37.47471 | -6.79772 | 38004 ft | 439 kts | 333° |
| 2026-04-20 20:48 | 37.50329 | -6.81331 | 38089 ft | 439 kts | 333° |
| 2026-04-20 20:49 | 37.55926 | -6.84428 | 38112 ft | 439 kts | 333° |
| 2026-04-20 20:49 | 37.61518 | -6.87523 | 38118 ft | 439 kts | 333° |
| 2026-04-20 20:50 | 37.67161 | -6.90646 | 38116 ft | 446 kts | 333° |
| 2026-04-20 20:50 | 37.72841 | -6.93792 | 38121 ft | 451 kts | 333° |
| 2026-04-20 20:51 | 37.78627 | -6.96999 | 38111 ft | 452 kts | 333° |
| 2026-04-20 20:51 | 37.84336 | -7.00169 | 38127 ft | 451 kts | 333° |
| 2026-04-20 20:52 | 37.87220 | -7.01772 | 37914 ft | 450 kts | 333° |
| 2026-04-20 20:52 | 37.90096 | -7.03372 | 38139 ft | 450 kts | 333° |
| 2026-04-20 20:52 | 37.95845 | -7.06578 | 38189 ft | 453 kts | 333° |
| 2026-04-20 20:53 | 38.01602 | -7.09927 | 38193 ft | 452 kts | 327° |
| 2026-04-20 20:53 | 38.06605 | -7.14637 | 38182 ft | 447 kts | 318° |
| 2026-04-20 20:54 | 38.11464 | -7.19610 | 38180 ft | 446 kts | 318° |
| 2026-04-20 20:54 | 38.16342 | -7.24607 | 38175 ft | 447 kts | 318° |
| 2026-04-20 20:55 | 38.21210 | -7.29603 | 38383 ft | 448 kts | 318° |
| 2026-04-20 20:55 | 38.23665 | -7.32127 | 38053 ft | 450 kts | 318° |
| 2026-04-20 20:55 | 38.26055 | -7.34585 | 37991 ft | 446 kts | 318° |
| 2026-04-20 20:56 | 38.30878 | -7.39551 | 38094 ft | 446 kts | 318° |
| 2026-04-20 20:56 | 38.35601 | -7.44420 | 38089 ft | 427 kts | 318° |
| 2026-04-20 20:57 | 38.37871 | -7.46763 | 38089 ft | 413 kts | 318° |
| 2026-04-20 20:57 | 38.40078 | -7.49041 | 38091 ft | 401 kts | 317° |
| 2026-04-20 20:57 | 38.44307 | -7.53416 | 38102 ft | 386 kts | 317° |
| 2026-04-20 20:58 | 38.48423 | -7.57683 | 38101 ft | 378 kts | 317° |
| 2026-04-20 20:58 | 38.52515 | -7.61936 | 37859 ft | 388 kts | 317° |
| 2026-04-20 20:59 | 38.54624 | -7.64133 | 37089 ft | 401 kts | 317° |
| 2026-04-20 20:59 | 38.56824 | -7.66425 | 36006 ft | 415 kts | 317° |
| 2026-04-20 20:59 | 38.59105 | -7.68805 | 34680 ft | 432 kts | 317° |
| 2026-04-20 20:59 | 38.61441 | -7.71242 | 33459 ft | 444 kts | 317° |
| 2026-04-20 21:00 | 38.63862 | -7.73769 | 32448 ft | 452 kts | 317° |
| 2026-04-20 21:00 | 38.66277 | -7.76291 | 31532 ft | 456 kts | 317° |
| 2026-04-20 21:00 | 38.68731 | -7.78854 | 30873 ft | 454 kts | 317° |
| 2026-04-20 21:00 | 38.71167 | -7.81400 | 30357 ft | 450 kts | 317° |
| 2026-04-20 21:01 | 38.73567 | -7.83911 | 30079 ft | 449 kts | 317° |
| 2026-04-20 21:01 | 38.75996 | -7.86455 | 30005 ft | 450 kts | 317° |
| 2026-04-20 21:01 | 38.80869 | -7.91567 | 29986 ft | 452 kts | 317° |
| 2026-04-20 21:02 | 38.85737 | -7.96683 | 29982 ft | 452 kts | 317° |
| 2026-04-20 21:02 | 38.90708 | -8.01630 | 29980 ft | 456 kts | 325° |
| 2026-04-20 21:03 | 38.96359 | -8.05306 | 29974 ft | 459 kts | 331° |
| 2026-04-20 21:03 | 39.02123 | -8.08872 | 29974 ft | 459 kts | 331° |
| 2026-04-20 21:04 | 39.07878 | -8.12443 | 29978 ft | 459 kts | 331° |
| 2026-04-20 21:04 | 39.13610 | -8.16006 | 29982 ft | 458 kts | 331° |
| 2026-04-20 21:05 | 39.19334 | -8.19571 | 29978 ft | 458 kts | 331° |
| 2026-04-20 21:05 | 39.25065 | -8.23147 | 29983 ft | 458 kts | 331° |
| 2026-04-20 21:06 | 39.30784 | -8.26721 | 29974 ft | 458 kts | 331° |
| 2026-04-20 21:06 | 39.36525 | -8.30317 | 29984 ft | 458 kts | 331° |
| 2026-04-20 21:07 | 39.42226 | -8.33893 | 29988 ft | 458 kts | 331° |
| 2026-04-20 21:07 | 39.47948 | -8.37490 | 29993 ft | 457 kts | 331° |
| 2026-04-20 21:08 | 39.53650 | -8.41080 | 29991 ft | 457 kts | 331° |
| 2026-04-20 21:08 | 39.59391 | -8.44702 | 29996 ft | 457 kts | 331° |
| 2026-04-20 21:09 | 39.65175 | -8.48226 | 29995 ft | 460 kts | 337° |
| 2026-04-20 21:09 | 39.68282 | -8.49348 | 29997 ft | 466 kts | 348° |
| 2026-04-20 21:09 | 39.71475 | -8.49845 | 30007 ft | 468 kts | 353° |
| 2026-04-20 21:10 | 39.77986 | -8.50610 | 30027 ft | 467 kts | 353° |
| 2026-04-20 21:10 | 39.84426 | -8.51373 | 30022 ft | 466 kts | 353° |
| 2026-04-20 21:11 | 39.90887 | -8.52142 | 30018 ft | 466 kts | 353° |
| 2026-04-20 21:11 | 39.97361 | -8.52915 | 30013 ft | 466 kts | 353° |
| 2026-04-20 21:12 | 40.03793 | -8.53685 | 29996 ft | 465 kts | 353° |
| 2026-04-20 21:12 | 40.10244 | -8.54459 | 29999 ft | 466 kts | 352° |
| 2026-04-20 21:13 | 40.16681 | -8.55232 | 30000 ft | 465 kts | 352° |
| 2026-04-20 21:13 | 40.23156 | -8.56011 | 29997 ft | 465 kts | 352° |
| 2026-04-20 21:14 | 40.29588 | -8.56787 | 30002 ft | 465 kts | 352° |
| 2026-04-20 21:14 | 40.36051 | -8.57569 | 30005 ft | 466 kts | 352° |
| 2026-04-20 21:15 | 40.42514 | -8.58353 | 30008 ft | 466 kts | 352° |
| 2026-04-20 21:15 | 40.49056 | -8.59147 | 30012 ft | 466 kts | 352° |
| 2026-04-20 21:16 | 40.55552 | -8.59937 | 30015 ft | 467 kts | 352° |
| 2026-04-20 21:16 | 40.62034 | -8.60726 | 30023 ft | 467 kts | 352° |
| 2026-04-20 21:17 | 40.68516 | -8.61517 | 30034 ft | 467 kts | 352° |
| 2026-04-20 21:17 | 40.74980 | -8.62308 | 30040 ft | 467 kts | 352° |
| 2026-04-20 21:18 | 40.81434 | -8.63101 | 30030 ft | 467 kts | 352° |
| 2026-04-20 21:18 | 40.87871 | -8.63889 | 29720 ft | 452 kts | 352° |
| 2026-04-20 21:19 | 40.90962 | -8.64268 | 29500 ft | 444 kts | 352° |
| 2026-04-20 21:19 | 40.94000 | -8.64641 | 29261 ft | 438 kts | 352° |
| 2026-04-20 21:19 | 40.97036 | -8.65016 | 29021 ft | 433 kts | 352° |
| 2026-04-20 21:20 | 41.02948 | -8.65746 | 28273 ft | 424 kts | 352° |
| 2026-04-20 21:20 | 41.05892 | -8.66110 | 27758 ft | 421 kts | 352° |
| 2026-04-20 21:20 | 41.08790 | -8.66469 | 27241 ft | 419 kts | 352° |
| 2026-04-20 21:20 | 41.11700 | -8.66830 | 26715 ft | 416 kts | 352° |
| 2026-04-20 21:21 | 41.14558 | -8.67184 | 26197 ft | 414 kts | 352° |
| 2026-04-20 21:21 | 41.17413 | -8.67539 | 25683 ft | 411 kts | 352° |
| 2026-04-20 21:21 | 41.20255 | -8.67892 | 25165 ft | 408 kts | 352° |
| 2026-04-20 21:21 | 41.23068 | -8.68242 | 24649 ft | 406 kts | 352° |
| 2026-04-20 21:22 | 41.25851 | -8.68583 | 24134 ft | 404 kts | 354° |
| 2026-04-20 21:22 | 41.28673 | -8.68563 | 23614 ft | 404 kts | 4° |
| 2026-04-20 21:22 | 41.31444 | -8.68134 | 23100 ft | 402 kts | 5° |
| 2026-04-20 21:22 | 41.34228 | -8.67705 | 22582 ft | 399 kts | 5° |
| 2026-04-20 21:23 | 41.36971 | -8.67282 | 22068 ft | 397 kts | 5° |
| 2026-04-20 21:23 | 41.39687 | -8.66863 | 21557 ft | 396 kts | 5° |
| 2026-04-20 21:23 | 41.42404 | -8.66443 | 21047 ft | 393 kts | 5° |
| 2026-04-20 21:23 | 41.45138 | -8.66019 | 20529 ft | 391 kts | 5° |
| 2026-04-20 21:24 | 41.47803 | -8.65606 | 20025 ft | 389 kts | 5° |
| 2026-04-20 21:24 | 41.50497 | -8.65187 | 19525 ft | 387 kts | 5° |
| 2026-04-20 21:24 | 41.53148 | -8.64775 | 19017 ft | 385 kts | 5° |
| 2026-04-20 21:24 | 41.55826 | -8.64358 | 18522 ft | 383 kts | 5° |
| 2026-04-20 21:25 | 41.58443 | -8.63950 | 18018 ft | 381 kts | 5° |
| 2026-04-20 21:25 | 41.61081 | -8.63539 | 17527 ft | 379 kts | 5° |
| 2026-04-20 21:25 | 41.63678 | -8.63134 | 17023 ft | 378 kts | 6° |
| 2026-04-20 21:25 | 41.66301 | -8.62724 | 16531 ft | 376 kts | 6° |
| 2026-04-20 21:26 | 41.68876 | -8.62322 | 16044 ft | 374 kts | 6° |
| 2026-04-20 21:26 | 41.71436 | -8.61921 | 15557 ft | 372 kts | 6° |
| 2026-04-20 21:26 | 41.74015 | -8.61518 | 15074 ft | 370 kts | 6° |
| 2026-04-20 21:26 | 41.76547 | -8.61121 | 14600 ft | 368 kts | 6° |
| 2026-04-20 21:27 | 41.79090 | -8.60722 | 14115 ft | 366 kts | 6° |
| 2026-04-20 21:27 | 41.81592 | -8.60329 | 13618 ft | 365 kts | 6° |
| 2026-04-20 21:27 | 41.84121 | -8.59932 | 13137 ft | 363 kts | 6° |
| 2026-04-20 21:27 | 41.86630 | -8.59537 | 12669 ft | 362 kts | 6° |
| 2026-04-20 21:28 | 41.89119 | -8.59144 | 12184 ft | 360 kts | 6° |
| 2026-04-20 21:28 | 41.91598 | -8.58751 | 11710 ft | 358 kts | 6° |
| 2026-04-20 21:28 | 41.94039 | -8.58365 | 11261 ft | 356 kts | 6° |
| 2026-04-20 21:28 | 41.96489 | -8.57976 | 10792 ft | 354 kts | 6° |
| 2026-04-20 21:29 | 41.98947 | -8.57586 | 10337 ft | 351 kts | 6° |
| 2026-04-20 21:29 | 42.01335 | -8.57207 | 10096 ft | 342 kts | 6° |
| 2026-04-20 21:29 | 42.03644 | -8.56839 | 9923 ft | 331 kts | 6° |
| 2026-04-20 21:29 | 42.05905 | -8.56617 | 9628 ft | 319 kts | 352° |
| 2026-04-20 21:30 | 42.07933 | -8.57537 | 9230 ft | 304 kts | 322° |
| 2026-04-20 21:30 | 42.09591 | -8.59240 | 8974 ft | 294 kts | 319° |
| 2026-04-20 21:30 | 42.11179 | -8.60914 | 8750 ft | 292 kts | 319° |
| 2026-04-20 21:30 | 42.12788 | -8.62606 | 8519 ft | 291 kts | 319° |
| 2026-04-20 21:31 | 42.14374 | -8.64274 | 8289 ft | 291 kts | 319° |
| 2026-04-20 21:31 | 42.15979 | -8.65964 | 8054 ft | 291 kts | 319° |
| 2026-04-20 21:31 | 42.17556 | -8.67625 | 7822 ft | 290 kts | 319° |
| 2026-04-20 21:31 | 42.18910 | -8.69621 | 7579 ft | 284 kts | 294° |
| 2026-04-20 21:32 | 42.19405 | -8.72115 | 7357 ft | 276 kts | 266° |
| 2026-04-20 21:32 | 42.19019 | -8.74592 | 7160 ft | 268 kts | 244° |
| 2026-04-20 21:32 | 42.18264 | -8.76861 | 6930 ft | 267 kts | 243° |
| 2026-04-20 21:32 | 42.17508 | -8.79151 | 6708 ft | 267 kts | 244° |
| 2026-04-20 21:33 | 42.16754 | -8.81442 | 6498 ft | 266 kts | 244° |
| 2026-04-20 21:33 | 42.15861 | -8.83610 | 6271 ft | 263 kts | 226° |
| 2026-04-20 21:33 | 42.14387 | -8.85042 | 6078 ft | 259 kts | 200° |
| 2026-04-20 21:33 | 42.12605 | -8.85403 | 6030 ft | 264 kts | 174° |
| 2026-04-20 21:34 | 42.10867 | -8.84711 | 6032 ft | 263 kts | 158° |
| 2026-04-20 21:34 | 42.09233 | -8.83770 | 5986 ft | 246 kts | 159° |
| 2026-04-20 21:34 | 42.07692 | -8.82898 | 5805 ft | 236 kts | 159° |
| 2026-04-20 21:34 | 42.06203 | -8.82038 | 5566 ft | 230 kts | 154° |
| 2026-04-20 21:35 | 42.04933 | -8.80728 | 5153 ft | 234 kts | 130° |
| 2026-04-20 21:35 | 42.04189 | -8.78777 | 4782 ft | 237 kts | 105° |
| 2026-04-20 21:35 | 42.04057 | -8.76606 | 4622 ft | 229 kts | 91° |
| 2026-04-20 21:35 | 42.04095 | -8.74525 | 4648 ft | 212 kts | 92° |
| 2026-04-20 21:36 | 42.04116 | -8.72623 | 4597 ft | 196 kts | 92° |
| 2026-04-20 21:36 | 42.04126 | -8.70857 | 4456 ft | 180 kts | 92° |
| 2026-04-20 21:36 | 42.04151 | -8.69259 | 4349 ft | 164 kts | 86° |
| 2026-04-20 21:36 | 42.04581 | -8.67913 | 4220 ft | 156 kts | 50° |
| 2026-04-20 21:37 | 42.05493 | -8.67107 | 4091 ft | 161 kts | 17° |
| 2026-04-20 21:37 | 42.06594 | -8.66831 | 3938 ft | 162 kts | 12° |
| 2026-04-20 21:37 | 42.07700 | -8.66570 | 3722 ft | 158 kts | 12° |
| 2026-04-20 21:37 | 42.08776 | -8.66312 | 3523 ft | 154 kts | 12° |
| 2026-04-20 21:38 | 42.09805 | -8.66060 | 3324 ft | 149 kts | 13° |
| 2026-04-20 21:38 | 42.10822 | -8.65807 | 3128 ft | 146 kts | 13° |
| 2026-04-20 21:38 | 42.11828 | -8.65555 | 3084 ft | 147 kts | 13° |
| 2026-04-20 21:38 | 42.12816 | -8.65305 | 3059 ft | 144 kts | 13° |
| 2026-04-20 21:39 | 42.13791 | -8.65058 | 2826 ft | 144 kts | 13° |
| 2026-04-20 21:39 | 42.14793 | -8.64807 | 2521 ft | 144 kts | 13° |
| 2026-04-20 21:39 | 42.15767 | -8.64564 | 2238 ft | 143 kts | 11° |
| 2026-04-20 21:39 | 42.16750 | -8.64324 | 1964 ft | 142 kts | 12° |
| 2026-04-20 21:40 | 42.17712 | -8.64102 | 1764 ft | 141 kts | 10° |
| 2026-04-20 21:40 | 42.17964 | -8.64045 | 1728 ft | 141 kts | 11° |
| 2026-04-20 21:42 | 42.18541 | -8.63911 | 1620 ft | 142 kts | 11° |
| 2026-04-20 21:43 | 42.19511 | -8.63664 | 1388 ft | 139 kts | 11° |
| 2026-04-20 21:43 | 42.20450 | -8.63414 | 1211 ft | 138 kts | 12° |
| 2026-04-20 21:43 | 42.21404 | -8.63162 | 1049 ft | 138 kts | 12° |
| 2026-04-20 21:43 | 42.22327 | -8.62910 | 852 ft | 135 kts | 11° |
| 2026-04-20 21:44 | 42.23159 | -8.62680 | 836 ft | 100 kts | 9° |
| 2026-04-20 21:44 | 42.23683 | -8.62541 | 827 ft | 57 kts | 11° |
| 2026-04-20 21:44 | 42.24002 | -8.62455 | 824 ft | 31 kts | 10° |
| 2026-04-20 21:44 | 42.24173 | -8.62439 | 824 ft | 16 kts | 349° |
| 2026-04-20 21:45 | 42.24216 | -8.62391 | 818 ft | 10 kts | 168° |
| 2026-04-20 21:45 | 42.24152 | -8.62415 | 821 ft | 7 kts | 195° |
| 2026-04-20 21:45 | 42.24112 | -8.62427 | 823 ft | 4 kts | 192° |
| 2026-04-20 21:45 | 42.24076 | -8.62436 | 824 ft | 7 kts | 191° |
| 2026-04-20 21:46 | 42.23998 | -8.62457 | 824 ft | 15 kts | 191° |
| 2026-04-20 21:46 | 42.23877 | -8.62489 | 826 ft | 18 kts | 191° |
| 2026-04-20 21:46 | 42.23747 | -8.62525 | 827 ft | 19 kts | 192° |
| 2026-04-20 21:46 | 42.23616 | -8.62561 | 828 ft | 19 kts | 191° |
| 2026-04-20 21:47 | 42.23484 | -8.62598 | 831 ft | 18 kts | 192° |
| 2026-04-20 21:47 | 42.23357 | -8.62631 | 833 ft | 18 kts | 191° |
| 2026-04-20 21:47 | 42.23237 | -8.62664 | 836 ft | 17 kts | 191° |
| 2026-04-20 21:47 | 42.23116 | -8.62697 | 836 ft | 18 kts | 191° |
| 2026-04-20 21:48 | 42.22995 | -8.62742 | 837 ft | 16 kts | 198° |
| 2026-04-20 21:48 | 42.22885 | -8.62799 | 838 ft | 16 kts | 210° |
| 2026-04-20 21:48 | 42.22788 | -8.62888 | 838 ft | 17 kts | 218° |
| 2026-04-20 21:48 | 42.22687 | -8.62999 | 838 ft | 18 kts | 219° |
| 2026-04-20 21:49 | 42.22612 | -8.63069 | 836 ft | 7 kts | 244° |
| 2026-04-20 21:49 | 42.22612 | -8.63120 | 835 ft | 4 kts | 282° |
| 2026-04-20 21:49 | 42.22616 | -8.63145 | 834 ft | 0 kts | 281° |